Time;durP1;ratioP1;P1;durP2;ratioP2;P2;SDS_P1;SDS_P2;PMS_P1;PMS_P2;Temp;Humidity;BMP_temperature;BMP_pressure;BME280_temperature;BME280_humidity;BME280_pressure;Samples;Min_cycle;Max_cycle;Signal;HPM_P1;HPM_P2
2021/10/08 00:09:27;;;;;;;5.13;3.00;;;19.60;66.50;;;;;;20690609;28;20108;-54
2021/10/08 00:19:28;;;;;;;4.60;2.90;;;19.60;66.60;;;;;;20733321;28;20125;-58
2021/10/08 00:29:28;;;;;;;3.67;2.25;;;19.60;66.40;;;;;;20703112;23;20046;-54
2021/10/08 00:39:29;;;;;;;4.22;3.17;;;19.60;66.30;;;;;;20669511;28;20056;-57
2021/10/08 00:49:30;;;;;;;4.10;2.83;;;19.50;66.20;;;;;;20668958;28;20030;-57
2021/10/08 00:59:33;;;;;;;4.38;2.55;;;19.50;66.10;;;;;;20667857;28;20037;-55
2021/10/08 01:09:34;;;;;;;4.25;2.38;;;19.50;66.00;;;;;;20667382;28;20117;-56
2021/10/08 01:19:37;;;;;;;4.53;2.78;;;19.50;66.10;;;;;;20666285;28;20081;-59
2021/10/08 01:29:52;;;;;;;3.55;1.85;;;19.40;66.10;;;;;;20665230;28;20093;-58
2021/10/08 01:39:53;;;;;;;4.95;2.55;;;19.40;65.70;;;;;;20665011;28;20033;-58
2021/10/08 01:49:54;;;;;;;3.90;1.98;;;19.40;65.50;;;;;;20664127;28;20420;-58
2021/10/08 01:59:54;;;;;;;5.93;2.47;;;19.40;65.40;;;;;;20663726;28;20395;-59
2021/10/08 02:09:55;;;;;;;4.22;2.13;;;19.40;65.60;;;;;;20662976;28;20041;-59
2021/10/08 02:19:56;;;;;;;4.65;2.55;;;19.40;65.40;;;;;;20660263;28;20547;-58
2021/10/08 02:29:57;;;;;;;4.18;2.10;;;19.40;65.10;;;;;;20658332;28;20101;-55
2021/10/08 02:39:57;;;;;;;5.15;2.30;;;19.30;65.00;;;;;;20659136;28;20512;-57
2021/10/08 02:49:58;;;;;;;2.47;1.75;;;19.30;65.10;;;;;;20657029;28;20097;-58
2021/10/08 02:59:59;;;;;;;2.88;1.95;;;19.30;64.70;;;;;;20656237;28;20035;-58
2021/10/08 03:10:00;;;;;;;6.15;2.20;;;19.30;64.80;;;;;;20655103;28;20034;-57
2021/10/08 03:20:02;;;;;;;4.35;1.55;;;19.20;64.60;;;;;;20654542;28;20038;-57
2021/10/08 03:30:08;;;;;;;4.60;1.80;;;19.20;65.10;;;;;;20653594;28;20521;-57
2021/10/08 03:40:11;;;;;;;4.28;1.67;;;19.20;64.40;;;;;;20636171;28;20541;-56
2021/10/08 03:50:11;;;;;;;1.98;1.55;;;19.20;64.20;;;;;;20653465;28;20033;-57
2021/10/08 04:00:13;;;;;;;1.85;1.10;;;19.20;64.30;;;;;;20652476;28;20497;-55
2021/10/08 04:10:13;;;;;;;3.22;1.70;;;19.10;64.10;;;;;;20652484;28;20034;-55
2021/10/08 04:20:14;;;;;;;3.22;1.65;;;19.20;63.90;;;;;;20652113;28;20041;-53
2021/10/08 04:30:15;;;;;;;1.83;1.30;;;19.20;63.80;;;;;;20651447;28;20529;-52
2021/10/08 04:40:16;;;;;;;2.80;1.17;;;19.20;63.70;;;;;;20651150;28;20093;-56
2021/10/08 04:50:17;;;;;;;2.25;1.25;;;19.10;63.50;;;;;;20650352;28;20108;-56
2021/10/08 05:00:18;;;;;;;1.77;1.50;;;19.10;63.50;;;;;;20653001;28;20026;-55
2021/10/08 05:10:20;;;;;;;2.42;1.08;;;19.10;63.50;;;;;;20650876;28;20050;-56
2021/10/08 05:20:21;;;;;;;1.42;0.90;;;19.10;63.30;;;;;;20665607;28;20033;-57
2021/10/08 05:30:21;;;;;;;1.85;1.00;;;19.10;63.40;;;;;;20662599;28;20050;-54
2021/10/08 05:40:22;;;;;;;2.60;1.50;;;19.10;63.20;;;;;;20659447;28;20102;-56
2021/10/08 05:50:22;;;;;;;2.83;1.50;;;19.00;63.30;;;;;;20652786;28;20033;-52
2021/10/08 06:00:23;;;;;;;5.60;1.00;;;19.00;62.60;;;;;;20663070;28;20480;-54
2021/10/08 06:10:24;;;;;;;17.35;3.15;;;19.20;62.10;;;;;;20662626;28;20030;-56
2021/10/08 06:20:26;;;;;;;10.60;3.08;;;19.30;61.80;;;;;;20654288;28;20034;-56
2021/10/08 06:30:26;;;;;;;16.65;4.15;;;19.30;61.80;;;;;;20654018;28;20116;-57
2021/10/08 06:40:27;;;;;;;10.90;2.47;;;19.40;61.70;;;;;;20660551;28;20114;-59
2021/10/08 06:50:28;;;;;;;12.15;4.13;;;19.50;60.30;;;;;;20646960;28;20100;-56
2021/10/08 07:00:28;;;;;;;7.30;2.47;;;19.50;60.70;;;;;;20658375;28;20527;-55
2021/10/08 07:10:29;;;;;;;7.90;2.40;;;19.60;59.40;;;;;;20657199;28;20454;-56
2021/10/08 07:20:30;;;;;;;7.70;2.17;;;19.60;60.30;;;;;;20657304;28;20050;-57
2021/10/08 07:30:30;;;;;;;12.52;2.85;;;19.70;59.10;;;;;;20652401;28;20484;-55
2021/10/08 07:40:31;;;;;;;8.60;2.30;;;19.70;59.90;;;;;;20655475;28;20041;-54
2021/10/08 07:50:32;;;;;;;5.35;2.33;;;19.70;60.40;;;;;;20653406;28;20034;-57
2021/10/08 08:00:32;;;;;;;4.57;1.47;;;19.70;59.80;;;;;;20621684;28;20106;-51
2021/10/08 08:10:33;;;;;;;6.50;1.70;;;19.80;60.30;;;;;;20634093;28;20481;-54
2021/10/08 08:20:34;;;;;;;5.67;2.17;;;19.90;60.20;;;;;;20649292;28;20170;-54
2021/10/08 08:30:37;;;;;;;4.03;1.50;;;20.00;60.20;;;;;;20647192;28;20475;-57
2021/10/08 08:40:38;;;;;;;4.47;1.70;;;20.00;59.90;;;;;;20675061;28;20030;-58
2021/10/08 08:50:45;;;;;;;3.55;1.27;;;20.10;59.90;;;;;;20648589;28;20034;-56
2021/10/08 09:00:59;;;;;;;5.53;1.50;;;20.10;60.00;;;;;;20665647;28;20049;-55
2021/10/08 09:11:02;;;;;;;2.63;1.67;;;20.10;60.00;;;;;;20665161;28;20509;-57
2021/10/08 09:21:13;;;;;;;2.88;1.17;;;20.20;60.00;;;;;;20665633;28;20431;-54
2021/10/08 09:31:16;;;;;;;3.35;0.95;;;20.20;60.00;;;;;;20663826;28;20077;-57
2021/10/08 09:41:16;;;;;;;1.80;0.90;;;20.20;60.00;;;;;;20661821;28;20041;-52
2021/10/08 09:51:17;;;;;;;2.67;1.17;;;20.30;60.10;;;;;;20661032;28;20030;-55
2021/10/08 10:01:29;;;;;;;3.80;1.52;;;20.30;60.50;;;;;;20661571;28;20645;-55
2021/10/08 10:11:30;;;;;;;5.15;1.10;;;20.30;60.20;;;;;;20660674;28;20088;-57
2021/10/08 10:21:36;;;;;;;3.30;1.08;;;20.40;60.30;;;;;;20658721;28;20030;-58
2021/10/08 10:31:37;;;;;;;3.05;0.90;;;20.40;60.30;;;;;;20654053;28;20042;-56
2021/10/08 10:41:41;;;;;;;2.17;1.08;;;20.40;60.20;;;;;;20643383;28;20113;-60
2021/10/08 10:52:03;;;;;;;5.15;1.23;;;20.40;60.20;;;;;;20644581;28;20033;-56
2021/10/08 11:12:29;;;;;;;8.05;2.15;;;20.40;60.20;;;;;;20658127;28;20104;-56
2021/10/08 11:22:44;;;;;;;4.05;2.00;;;20.40;60.40;;;;;;20657200;28;20046;-56
2021/10/08 11:32:52;;;;;;;5.75;2.05;;;20.40;60.60;;;;;;20656548;28;20579;-56
2021/10/08 11:42:58;;;;;;;6.07;2.58;;;20.40;60.60;;;;;;20654150;28;20022;-54
2021/10/08 11:53:02;;;;;;;4.85;2.65;;;20.40;60.50;;;;;;20653242;28;20031;-53
2021/10/08 12:03:10;;;;;;;7.22;3.30;;;20.40;60.50;;;;;;20650109;28;20025;-56
2021/10/08 12:13:11;;;;;;;5.70;3.87;;;20.40;60.50;;;;;;20663566;28;20109;-51
2021/10/08 12:23:23;;;;;;;4.50;3.15;;;20.40;60.40;;;;;;20671412;28;20070;-51
2021/10/08 12:33:30;;;;;;;5.18;3.88;;;20.40;60.50;;;;;;20668714;28;20104;-57
2021/10/08 12:43:33;;;;;;;4.05;3.50;;;20.40;60.20;;;;;;20667906;28;20485;-57
2021/10/08 12:53:33;;;;;;;4.93;4.40;;;20.30;60.00;;;;;;20666757;28;20088;-56
2021/10/08 13:03:35;;;;;;;5.03;3.65;;;20.30;60.20;;;;;;20665451;28;20026;-58
2021/10/08 13:13:56;;;;;;;7.72;4.90;;;20.40;60.30;;;;;;20656752;28;20405;-58
2021/10/08 13:23:57;;;;;;;7.95;5.85;;;20.40;60.50;;;;;;20643822;28;20609;-58
2021/10/08 13:33:57;;;;;;;15.00;6.63;;;20.30;60.50;;;;;;20662480;28;20117;-55
2021/10/08 13:43:58;;;;;;;18.13;8.95;;;20.40;60.20;;;;;;20661633;28;20180;-55
2021/10/08 13:53:58;;;;;;;12.63;8.60;;;20.30;59.30;;;;;;20661294;28;20105;-58
2021/10/08 14:04:06;;;;;;;12.90;8.13;;;20.20;58.50;;;;;;20660910;28;20026;-56
2021/10/08 14:14:07;;;;;;;13.20;9.30;;;20.20;59.70;;;;;;20646061;28;20125;-58
2021/10/08 14:24:07;;;;;;;15.57;7.80;;;20.20;58.30;;;;;;20658556;28;20089;-56
2021/10/08 14:34:08;;;;;;;11.10;8.00;;;20.20;58.90;;;;;;20657829;28;20523;-57
2021/10/08 14:44:08;;;;;;;14.13;8.82;;;20.20;58.80;;;;;;20657101;28;20041;-58
2021/10/08 15:04:15;;;;;;;10.18;7.18;;;20.20;58.00;;;;;;20655635;28;20029;-58
2021/10/08 15:14:15;;;;;;;10.50;6.70;;;20.30;58.30;;;;;;20625767;28;20479;-54
2021/10/08 15:24:16;;;;;;;14.63;7.57;;;20.20;57.80;;;;;;20642495;28;20131;-55
2021/10/08 15:34:17;;;;;;;15.25;7.35;;;20.20;58.10;;;;;;20600055;28;20054;-56
2021/10/08 15:44:18;;;;;;;12.57;6.53;;;20.20;57.90;;;;;;20654630;28;20030;-57
2021/10/08 15:54:18;;;;;;;9.95;6.35;;;20.20;57.90;;;;;;20655536;28;20030;-56
2021/10/08 16:04:19;;;;;;;14.65;7.22;;;20.30;58.10;;;;;;20655252;28;20037;-55
2021/10/08 16:14:21;;;;;;;19.08;6.30;;;20.30;57.60;;;;;;20654934;28;20473;-57
2021/10/08 16:24:22;;;;;;;12.73;6.05;;;20.30;57.90;;;;;;20654609;28;20528;-58
2021/10/08 16:34:23;;;;;;;14.90;6.47;;;20.30;58.60;;;;;;20653233;28;20046;-57
2021/10/08 16:44:24;;;;;;;11.50;6.25;;;20.30;58.50;;;;;;20650524;28;20062;-56
2021/10/08 16:54:29;;;;;;;15.83;6.13;;;20.30;58.70;;;;;;20634561;28;20516;-58
2021/10/08 17:04:30;;;;;;;19.30;6.40;;;20.40;58.70;;;;;;20665859;28;21066;-56
2021/10/08 17:14:30;;;;;;;10.60;5.60;;;20.40;58.80;;;;;;20666214;28;20033;-58
2021/10/08 17:24:35;;;;;;;18.02;7.22;;;20.40;58.90;;;;;;20664552;28;20034;-56
2021/10/08 17:34:35;;;;;;;25.55;9.00;;;20.40;59.40;;;;;;20619172;28;20026;-51
2021/10/08 17:44:36;;;;;;;19.93;7.83;;;20.40;60.30;;;;;;20658433;28;20085;-56
2021/10/08 17:54:38;;;;;;;17.50;7.80;;;20.40;59.90;;;;;;20662148;28;20512;-55
2021/10/08 18:04:41;;;;;;;23.27;7.18;;;20.40;60.00;;;;;;20615124;28;20053;-56
2021/10/08 18:14:42;;;;;;;18.35;7.53;;;20.40;60.20;;;;;;20657930;28;20038;-57
2021/10/08 18:24:43;;;;;;;19.15;6.57;;;20.40;60.40;;;;;;20659205;28;20140;-57
2021/10/08 18:34:44;;;;;;;8.38;5.85;;;20.40;60.30;;;;;;20769000;23;20504;-61
2021/10/08 18:44:44;;;;;;;12.88;6.72;;;20.40;60.40;;;;;;20723140;28;20114;-61
2021/10/08 18:54:45;;;;;;;12.13;5.70;;;20.40;60.30;;;;;;20726901;28;20038;-61
2021/10/08 19:04:45;;;;;;;13.95;6.97;;;20.40;60.30;;;;;;20717953;28;20100;-62
2021/10/08 19:24:46;;;;;;;31.65;8.57;;;20.40;60.30;;;;;;20704841;28;20026;-61
2021/10/08 19:34:47;;;;;;;17.58;7.40;;;20.40;62.30;;;;;;20715582;28;20042;-61
2021/10/08 19:44:52;;;;;;;18.08;6.35;;;20.40;61.20;;;;;;20712523;28;20117;-61
2021/10/08 19:54:53;;;;;;;19.95;10.13;;;20.40;61.20;;;;;;20699684;28;20041;-60
2021/10/08 20:05:04;;;;;;;21.45;11.05;;;20.20;60.00;;;;;;20735508;28;20038;-61
2021/10/08 20:15:05;;;;;;;23.33;12.15;;;20.20;60.10;;;;;;20740629;28;20033;-61
2021/10/08 20:25:06;;;;;;;20.63;12.40;;;20.10;59.20;;;;;;20739030;28;20514;-60
2021/10/08 20:35:07;;;;;;;17.25;11.20;;;20.00;59.00;;;;;;20827108;28;20120;-61
2021/10/08 20:45:08;;;;;;;19.60;11.65;;;20.10;58.60;;;;;;20794317;28;20128;-61
2021/10/08 20:55:09;;;;;;;19.20;13.15;;;20.00;59.00;;;;;;20754406;28;20109;-60
2021/10/08 21:05:10;;;;;;;20.48;13.55;;;19.90;59.20;;;;;;20794855;28;20373;-61
2021/10/08 21:15:11;;;;;;;19.63;12.32;;;19.80;59.10;;;;;;20808001;28;20458;-61
2021/10/08 21:25:11;;;;;;;28.15;12.13;;;19.70;59.50;;;;;;20791422;28;20033;-60
2021/10/08 21:35:16;;;;;;;24.05;10.60;;;19.70;60.60;;;;;;20781733;28;20120;-61
2021/10/08 21:45:16;;;;;;;25.38;10.55;;;19.70;61.30;;;;;;20813562;28;20115;-61
2021/10/08 21:55:17;;;;;;;18.23;10.18;;;19.70;60.80;;;;;;20787704;28;20492;-61
2021/10/08 22:05:17;;;;;;;21.20;10.57;;;19.70;60.80;;;;;;20792171;28;20026;-61
2021/10/08 22:15:18;;;;;;;26.45;9.30;;;19.70;61.10;;;;;;20783622;28;20030;-61
2021/10/08 22:25:23;;;;;;;22.30;11.00;;;19.60;61.20;;;;;;20786887;28;20040;-59
2021/10/08 22:35:23;;;;;;;23.65;9.70;;;19.60;61.10;;;;;;20777625;28;20045;-59
2021/10/08 22:45:24;;;;;;;15.85;9.88;;;19.60;61.10;;;;;;20778683;28;20030;-60
2021/10/08 22:55:24;;;;;;;13.80;7.77;;;19.60;61.20;;;;;;20781726;28;20044;-59
2021/10/08 23:05:27;;;;;;;13.35;9.98;;;19.60;61.30;;;;;;20785360;28;20033;-58
2021/10/08 23:15:34;;;;;;;13.13;8.52;;;19.50;61.40;;;;;;20789223;28;20457;-59
2021/10/08 23:25:35;;;;;;;12.75;9.18;;;19.60;61.40;;;;;;20783848;28;20084;-59
2021/10/08 23:35:35;;;;;;;10.35;7.68;;;19.60;61.40;;;;;;20774242;28;20377;-59
2021/10/08 23:45:36;;;;;;;12.70;8.20;;;19.50;61.30;;;;;;20746692;28;20116;-60
2021/10/08 23:55:37;;;;;;;11.07;9.07;;;19.50;61.40;;;;;;20737981;28;20058;-59
